Terminal Aerodrome Forecast
Issued by NWS Wilmington, OH

Current Version | Previous Version | Text Only | Print | Product List | Glossary Off
Versions: 1 2 3 4 5 6 7 8 9 10 11 12 13 14 15 16 17 18 19 20 21 22 23 24 25

000
FTUS41 KILN 231300 AAA
TAFDAY
TAF AMD
KDAY 231339Z 2314/2412 17012KT P6SM OVC060
     FM231900 15012G18KT P6SM VCSH BKN035
     FM232200 13012G20KT 4SM -SHRA BR OVC012
     FM240300 16014G26KT 3SM -SHRA BR OVC009
     FM240700 18015G25KT P6SM VCSH OVC010=

USA.gov is the U.S. government's official web portal to all federal, state and local government web resources and services.